sensor_id;sensor_type;location;lat;lon;timestamp;pressure;altitude;pressure_sealevel;temperature
69785;BMP280;14177;51.520;6.764;2022-10-16T00:00:49;100861.91;;;15.33
69785;BMP280;14177;51.520;6.764;2022-10-16T00:04:24;100856.66;;;15.33
69785;BMP280;14177;51.520;6.764;2022-10-16T00:07:32;100869.81;;;15.32
69785;BMP280;14177;51.520;6.764;2022-10-16T00:18:05;100868.97;;;15.31
69785;BMP280;14177;51.520;6.764;2022-10-16T00:20:37;100863.19;;;15.25
69785;BMP280;14177;51.520;6.764;2022-10-16T00:23:29;100852.84;;;15.22
69785;BMP280;14177;51.520;6.764;2022-10-16T00:26:00;100868.63;;;15.20
69785;BMP280;14177;51.520;6.764;2022-10-16T00:28:50;100872.09;;;15.21
69785;BMP280;14177;51.520;6.764;2022-10-16T00:31:43;100877.34;;;15.21
69785;BMP280;14177;51.520;6.764;2022-10-16T00:34:30;100874.75;;;15.19
69785;BMP280;14177;51.520;6.764;2022-10-16T00:37:00;100879.84;;;15.22
69785;BMP280;14177;51.520;6.764;2022-10-16T00:39:28;100879.16;;;15.19
69785;BMP280;14177;51.520;6.764;2022-10-16T00:42:24;100870.41;;;15.20
69785;BMP280;14177;51.520;6.764;2022-10-16T00:45:21;100879.16;;;15.19
69785;BMP280;14177;51.520;6.764;2022-10-16T00:47:57;100869.53;;;15.19
69785;BMP280;14177;51.520;6.764;2022-10-16T00:50:34;100865.78;;;15.25
69785;BMP280;14177;51.520;6.764;2022-10-16T00:53:02;100873.53;;;15.28
69785;BMP280;14177;51.520;6.764;2022-10-16T00:56:13;100863.97;;;15.27
69785;BMP280;14177;51.520;6.764;2022-10-16T00:58:47;100868.41;;;15.25
69785;BMP280;14177;51.520;6.764;2022-10-16T01:02:14;100867.44;;;15.27
69785;BMP280;14177;51.520;6.764;2022-10-16T01:13:02;100869.38;;;15.22
69785;BMP280;14177;51.520;6.764;2022-10-16T01:16:49;100867.69;;;15.21
69785;BMP280;14177;51.520;6.764;2022-10-16T01:34:10;100878.63;;;14.94
69785;BMP280;14177;51.520;6.764;2022-10-16T01:37:14;100871.97;;;14.87
69785;BMP280;14177;51.520;6.764;2022-10-16T01:40:00;100872.47;;;14.95
69785;BMP280;14177;51.520;6.764;2022-10-16T01:43:15;100875.94;;;14.95
69785;BMP280;14177;51.520;6.764;2022-10-16T01:46:05;100868.31;;;14.91
69785;BMP280;14177;51.520;6.764;2022-10-16T01:49:14;100858.75;;;14.90
69785;BMP280;14177;51.520;6.764;2022-10-16T01:58:41;100876.84;;;14.94
69785;BMP280;14177;51.520;6.764;2022-10-16T02:01:49;100868.94;;;14.96
69785;BMP280;14177;51.520;6.764;2022-10-16T02:05:16;100866.38;;;14.94
69785;BMP280;14177;51.520;6.764;2022-10-16T02:17:27;100892.41;;;14.79
69785;BMP280;14177;51.520;6.764;2022-10-16T02:20:52;100894.47;;;14.72
69785;BMP280;14177;51.520;6.764;2022-10-16T02:23:45;100895.66;;;14.65
69785;BMP280;14177;51.520;6.764;2022-10-16T02:31:36;100896.78;;;14.60
69785;BMP280;14177;51.520;6.764;2022-10-16T02:44:09;100890.78;;;14.58
69785;BMP280;14177;51.520;6.764;2022-10-16T02:47:06;100894.31;;;14.57
69785;BMP280;14177;51.520;6.764;2022-10-16T02:53:55;100879.47;;;14.57
69785;BMP280;14177;51.520;6.764;2022-10-16T02:57:25;100891.84;;;14.54
69785;BMP280;14177;51.520;6.764;2022-10-16T03:04:46;100894.75;;;14.48
69785;BMP280;14177;51.520;6.764;2022-10-16T03:12:45;100903.09;;;14.56
69785;BMP280;14177;51.520;6.764;2022-10-16T03:20:28;100900.81;;;14.67
69785;BMP280;14177;51.520;6.764;2022-10-16T03:22:56;100897.28;;;14.68
69785;BMP280;14177;51.520;6.764;2022-10-16T03:25:38;100891.78;;;14.74
69785;BMP280;14177;51.520;6.764;2022-10-16T03:28:05;100894.88;;;14.82
69785;BMP280;14177;51.520;6.764;2022-10-16T03:30:45;100903.50;;;14.84
69785;BMP280;14177;51.520;6.764;2022-10-16T03:33:13;100895.53;;;14.87
69785;BMP280;14177;51.520;6.764;2022-10-16T03:35:40;100894.31;;;14.94
69785;BMP280;14177;51.520;6.764;2022-10-16T03:38:23;100899.47;;;14.95
69785;BMP280;14177;51.520;6.764;2022-10-16T03:41:00;100893.13;;;15.01
69785;BMP280;14177;51.520;6.764;2022-10-16T03:43:32;100892.47;;;14.96
69785;BMP280;14177;51.520;6.764;2022-10-16T03:46:26;100904.78;;;14.94
69785;BMP280;14177;51.520;6.764;2022-10-16T03:48:54;100896.25;;;14.90
69785;BMP280;14177;51.520;6.764;2022-10-16T03:52:03;100915.25;;;14.94
69785;BMP280;14177;51.520;6.764;2022-10-16T03:54:47;100910.00;;;14.94
69785;BMP280;14177;51.520;6.764;2022-10-16T03:57:26;100929.75;;;15.01
69785;BMP280;14177;51.520;6.764;2022-10-16T03:59:55;100926.97;;;15.04
69785;BMP280;14177;51.520;6.764;2022-10-16T04:02:28;100906.84;;;15.06
69785;BMP280;14177;51.520;6.764;2022-10-16T04:05:23;100900.81;;;15.04
69785;BMP280;14177;51.520;6.764;2022-10-16T04:07:51;100910.66;;;14.99
69785;BMP280;14177;51.520;6.764;2022-10-16T04:10:54;100916.66;;;15.01
69785;BMP280;14177;51.520;6.764;2022-10-16T04:13:42;100929.00;;;14.97
69785;BMP280;14177;51.520;6.764;2022-10-16T04:16:10;100928.09;;;14.98
69785;BMP280;14177;51.520;6.764;2022-10-16T04:19:04;100927.31;;;14.96
69785;BMP280;14177;51.520;6.764;2022-10-16T04:21:31;100929.09;;;14.96
69785;BMP280;14177;51.520;6.764;2022-10-16T04:27:30;100933.34;;;14.98
69785;BMP280;14177;51.520;6.764;2022-10-16T04:30:22;100941.97;;;15.00
69785;BMP280;14177;51.520;6.764;2022-10-16T04:32:52;100935.31;;;14.93
69785;BMP280;14177;51.520;6.764;2022-10-16T04:35:31;100937.00;;;14.94
69785;BMP280;14177;51.520;6.764;2022-10-16T04:37:58;100943.25;;;14.92
69785;BMP280;14177;51.520;6.764;2022-10-16T04:40:29;100950.94;;;14.95
69785;BMP280;14177;51.520;6.764;2022-10-16T04:43:09;100946.88;;;14.89
69785;BMP280;14177;51.520;6.764;2022-10-16T04:45:36;100950.44;;;14.87
69785;BMP280;14177;51.520;6.764;2022-10-16T04:48:05;100952.94;;;14.90
69785;BMP280;14177;51.520;6.764;2022-10-16T04:50:41;100963.47;;;14.88
69785;BMP280;14177;51.520;6.764;2022-10-16T04:53:08;100955.41;;;14.93
69785;BMP280;14177;51.520;6.764;2022-10-16T04:55:36;100960.84;;;14.88
69785;BMP280;14177;51.520;6.764;2022-10-16T04:58:28;100959.34;;;14.83
69785;BMP280;14177;51.520;6.764;2022-10-16T05:00:55;100965.44;;;14.83
69785;BMP280;14177;51.520;6.764;2022-10-16T05:03:22;100977.38;;;14.89
69785;BMP280;14177;51.520;6.764;2022-10-16T05:05:49;100976.59;;;14.87
69785;BMP280;14177;51.520;6.764;2022-10-16T05:08:16;100977.34;;;14.90
69785;BMP280;14177;51.520;6.764;2022-10-16T05:10:44;100970.25;;;14.92
69785;BMP280;14177;51.520;6.764;2022-10-16T05:13:11;100984.25;;;14.91
69785;BMP280;14177;51.520;6.764;2022-10-16T05:15:38;100991.25;;;14.91
69785;BMP280;14177;51.520;6.764;2022-10-16T05:18:05;100983.25;;;14.94
69785;BMP280;14177;51.520;6.764;2022-10-16T05:20:32;100985.97;;;14.92
69785;BMP280;14177;51.520;6.764;2022-10-16T05:22:59;100984.94;;;14.95
69785;BMP280;14177;51.520;6.764;2022-10-16T05:25:26;100989.28;;;14.96
69785;BMP280;14177;51.520;6.764;2022-10-16T05:27:53;100998.94;;;14.94
69785;BMP280;14177;51.520;6.764;2022-10-16T05:30:20;100992.03;;;14.93
69785;BMP280;14177;51.520;6.764;2022-10-16T05:32:50;100988.41;;;14.95
69785;BMP280;14177;51.520;6.764;2022-10-16T05:35:18;100988.63;;;14.91
69785;BMP280;14177;51.520;6.764;2022-10-16T05:37:46;100993.03;;;14.90
69785;BMP280;14177;51.520;6.764;2022-10-16T05:40:13;101003.53;;;14.89
69785;BMP280;14177;51.520;6.764;2022-10-16T05:42:41;101012.38;;;14.86
69785;BMP280;14177;51.520;6.764;2022-10-16T05:45:10;101005.50;;;14.84
69785;BMP280;14177;51.520;6.764;2022-10-16T05:47:39;101005.50;;;14.84
69785;BMP280;14177;51.520;6.764;2022-10-16T05:50:06;101011.66;;;14.83
69785;BMP280;14177;51.520;6.764;2022-10-16T05:52:33;101010.09;;;14.79
69785;BMP280;14177;51.520;6.764;2022-10-16T05:55:00;101018.03;;;14.77
69785;BMP280;14177;51.520;6.764;2022-10-16T05:57:27;101032.06;;;14.75
69785;BMP280;14177;51.520;6.764;2022-10-16T05:59:54;101030.38;;;14.74
69785;BMP280;14177;51.520;6.764;2022-10-16T06:02:21;101034.69;;;14.75
69785;BMP280;14177;51.520;6.764;2022-10-16T06:04:48;101045.41;;;14.69
69785;BMP280;14177;51.520;6.764;2022-10-16T06:07:15;101039.91;;;14.75
69785;BMP280;14177;51.520;6.764;2022-10-16T06:09:42;101032.16;;;14.73
69785;BMP280;14177;51.520;6.764;2022-10-16T06:12:09;101045.28;;;14.72
69785;BMP280;14177;51.520;6.764;2022-10-16T06:14:35;101042.13;;;14.64
69785;BMP280;14177;51.520;6.764;2022-10-16T06:17:02;101038.47;;;14.68
69785;BMP280;14177;51.520;6.764;2022-10-16T06:19:29;101044.69;;;14.65
69785;BMP280;14177;51.520;6.764;2022-10-16T06:21:56;101053.50;;;14.63
69785;BMP280;14177;51.520;6.764;2022-10-16T06:24:25;101051.50;;;14.69
69785;BMP280;14177;51.520;6.764;2022-10-16T06:26:52;101053.06;;;14.73
69785;BMP280;14177;51.520;6.764;2022-10-16T06:29:20;101058.03;;;14.79
69785;BMP280;14177;51.520;6.764;2022-10-16T06:31:47;101072.06;;;14.77
69785;BMP280;14177;51.520;6.764;2022-10-16T06:34:14;101064.34;;;14.74
69785;BMP280;14177;51.520;6.764;2022-10-16T06:36:41;101080.56;;;14.82
69785;BMP280;14177;51.520;6.764;2022-10-16T06:39:10;101072.72;;;14.82
69785;BMP280;14177;51.520;6.764;2022-10-16T06:41:37;101083.00;;;14.86
69785;BMP280;14177;51.520;6.764;2022-10-16T06:44:14;101089.97;;;14.86
69785;BMP280;14177;51.520;6.764;2022-10-16T06:46:42;101082.88;;;14.89
69785;BMP280;14177;51.520;6.764;2022-10-16T06:49:09;101097.69;;;14.89
69785;BMP280;14177;51.520;6.764;2022-10-16T06:51:36;101101.19;;;14.89
69785;BMP280;14177;51.520;6.764;2022-10-16T06:54:09;101116.00;;;14.89
69785;BMP280;14177;51.520;6.764;2022-10-16T06:56:36;101122.28;;;14.85
69785;BMP280;14177;51.520;6.764;2022-10-16T06:59:04;101124.19;;;14.81
69785;BMP280;14177;51.520;6.764;2022-10-16T07:01:33;101132.75;;;14.85
69785;BMP280;14177;51.520;6.764;2022-10-16T07:04:01;101138.91;;;14.84
69785;BMP280;14177;51.520;6.764;2022-10-16T07:06:32;101140.47;;;14.88
69785;BMP280;14177;51.520;6.764;2022-10-16T07:09:04;101149.31;;;14.85
69785;BMP280;14177;51.520;6.764;2022-10-16T07:11:31;101151.19;;;14.82
69785;BMP280;14177;51.520;6.764;2022-10-16T07:13:58;101163.56;;;14.78
69785;BMP280;14177;51.520;6.764;2022-10-16T07:16:28;101163.72;;;14.74
69785;BMP280;14177;51.520;6.764;2022-10-16T07:18:57;101164.53;;;14.76
69785;BMP280;14177;51.520;6.764;2022-10-16T07:21:33;101167.53;;;14.87
69785;BMP280;14177;51.520;6.764;2022-10-16T07:24:12;101166.75;;;15.25
69785;BMP280;14177;51.520;6.764;2022-10-16T07:26:42;101164.84;;;15.67
69785;BMP280;14177;51.520;6.764;2022-10-16T07:29:18;101168.22;;;16.05
69785;BMP280;14177;51.520;6.764;2022-10-16T07:31:46;101172.06;;;16.35
69785;BMP280;14177;51.520;6.764;2022-10-16T07:34:17;101173.97;;;16.67
69785;BMP280;14177;51.520;6.764;2022-10-16T07:36:47;101182.28;;;16.92
69785;BMP280;14177;51.520;6.764;2022-10-16T07:39:14;101168.09;;;17.13
69785;BMP280;14177;51.520;6.764;2022-10-16T07:41:41;101178.63;;;17.28
69785;BMP280;14177;51.520;6.764;2022-10-16T07:44:08;101177.34;;;17.37
69785;BMP280;14177;51.520;6.764;2022-10-16T07:46:35;101186.34;;;17.48
69785;BMP280;14177;51.520;6.764;2022-10-16T07:49:03;101194.69;;;17.56
69785;BMP280;14177;51.520;6.764;2022-10-16T07:51:30;101203.00;;;17.64
69785;BMP280;14177;51.520;6.764;2022-10-16T07:53:57;101213.03;;;17.73
69785;BMP280;14177;51.520;6.764;2022-10-16T07:56:24;101209.47;;;17.74
69785;BMP280;14177;51.520;6.764;2022-10-16T07:58:51;101210.13;;;17.78
69785;BMP280;14177;51.520;6.764;2022-10-16T08:01:19;101224.47;;;17.88
69785;BMP280;14177;51.520;6.764;2022-10-16T08:03:49;101221.38;;;17.97
69785;BMP280;14177;51.520;6.764;2022-10-16T08:06:18;101208.81;;;18.02
69785;BMP280;14177;51.520;6.764;2022-10-16T08:08:52;101209.59;;;18.04
69785;BMP280;14177;51.520;6.764;2022-10-16T08:11:19;101229.34;;;18.11
69785;BMP280;14177;51.520;6.764;2022-10-16T08:13:46;101235.56;;;18.25
69785;BMP280;14177;51.520;6.764;2022-10-16T08:16:13;101234.78;;;18.38
69785;BMP280;14177;51.520;6.764;2022-10-16T08:18:41;101239.72;;;18.44
69785;BMP280;14177;51.520;6.764;2022-10-16T08:21:15;101247.78;;;18.57
69785;BMP280;14177;51.520;6.764;2022-10-16T08:23:47;101246.31;;;18.67
69785;BMP280;14177;51.520;6.764;2022-10-16T08:26:22;101261.81;;;18.87
69785;BMP280;14177;51.520;6.764;2022-10-16T08:28:50;101257.44;;;19.01
69785;BMP280;14177;51.520;6.764;2022-10-16T08:31:18;101255.69;;;19.31
69785;BMP280;14177;51.520;6.764;2022-10-16T08:33:45;101256.13;;;19.53
69785;BMP280;14177;51.520;6.764;2022-10-16T08:36:15;101251.13;;;19.62
69785;BMP280;14177;51.520;6.764;2022-10-16T08:38:42;101258.09;;;19.77
69785;BMP280;14177;51.520;6.764;2022-10-16T08:44:58;101275.00;;;20.03
69785;BMP280;14177;51.520;6.764;2022-10-16T08:50:31;101280.38;;;20.01
69785;BMP280;14177;51.520;6.764;2022-10-16T08:52:59;101277.13;;;19.96
69785;BMP280;14177;51.520;6.764;2022-10-16T08:55:41;101283.81;;;19.88
69785;BMP280;14177;51.520;6.764;2022-10-16T08:58:16;101282.09;;;19.87
69785;BMP280;14177;51.520;6.764;2022-10-16T09:00:58;101288.50;;;19.83
69785;BMP280;14177;51.520;6.764;2022-10-16T09:07:16;101299.28;;;20.08
69785;BMP280;14177;51.520;6.764;2022-10-16T09:12:56;101304.53;;;19.94
69785;BMP280;14177;51.520;6.764;2022-10-16T09:18:48;101292.50;;;20.18
69785;BMP280;14177;51.520;6.764;2022-10-16T09:21:26;101304.19;;;20.28
69785;BMP280;14177;51.520;6.764;2022-10-16T09:24:14;101309.84;;;20.36
69785;BMP280;14177;51.520;6.764;2022-10-16T09:26:42;101309.91;;;20.48
69785;BMP280;14177;51.520;6.764;2022-10-16T09:29:14;101320.53;;;20.47
69785;BMP280;14177;51.520;6.764;2022-10-16T09:31:42;101320.53;;;20.47
69785;BMP280;14177;51.520;6.764;2022-10-16T09:34:33;101313.47;;;20.47
69785;BMP280;14177;51.520;6.764;2022-10-16T09:37:09;101308.28;;;20.46
69785;BMP280;14177;51.520;6.764;2022-10-16T09:39:53;101310.47;;;20.25
69785;BMP280;14177;51.520;6.764;2022-10-16T09:42:32;101312.63;;;20.47
69785;BMP280;14177;51.520;6.764;2022-10-16T09:45:01;101312.53;;;20.48
69785;BMP280;14177;51.520;6.764;2022-10-16T09:47:31;101320.72;;;20.44
69785;BMP280;14177;51.520;6.764;2022-10-16T09:50:18;101316.69;;;20.38
69785;BMP280;14177;51.520;6.764;2022-10-16T09:52:46;101327.88;;;20.42
69785;BMP280;14177;51.520;6.764;2022-10-16T09:55:17;101318.09;;;20.44
69785;BMP280;14177;51.520;6.764;2022-10-16T09:57:51;101317.53;;;20.79
69785;BMP280;14177;51.520;6.764;2022-10-16T10:00:21;101313.69;;;20.85
69785;BMP280;14177;51.520;6.764;2022-10-16T10:03:10;101311.75;;;21.00
69785;BMP280;14177;51.520;6.764;2022-10-16T10:05:48;101320.88;;;21.09
69785;BMP280;14177;51.520;6.764;2022-10-16T10:08:18;101328.34;;;21.41
69785;BMP280;14177;51.520;6.764;2022-10-16T10:11:56;101317.41;;;21.97
69785;BMP280;14177;51.520;6.764;2022-10-16T10:14:55;101311.91;;;22.37
69785;BMP280;14177;51.520;6.764;2022-10-16T10:17:26;101312.31;;;22.31
69785;BMP280;14177;51.520;6.764;2022-10-16T10:22:49;101323.59;;;21.85
69785;BMP280;14177;51.520;6.764;2022-10-16T10:25:39;101329.16;;;21.81
69785;BMP280;14177;51.520;6.764;2022-10-16T10:31:14;101316.97;;;22.28
69785;BMP280;14177;51.520;6.764;2022-10-16T10:36:25;101315.50;;;21.99
69785;BMP280;14177;51.520;6.764;2022-10-16T10:39:14;101324.97;;;21.52
69785;BMP280;14177;51.520;6.764;2022-10-16T10:42:24;101332.94;;;20.87
69785;BMP280;14177;51.520;6.764;2022-10-16T10:47:47;101322.25;;;21.53
69785;BMP280;14177;51.520;6.764;2022-10-16T10:50:39;101329.84;;;21.58
69785;BMP280;14177;51.520;6.764;2022-10-16T10:56:41;101336.75;;;21.21
69785;BMP280;14177;51.520;6.764;2022-10-16T11:02:38;101339.00;;;21.79
69785;BMP280;14177;51.520;6.764;2022-10-16T11:08:11;101332.97;;;22.75
69785;BMP280;14177;51.520;6.764;2022-10-16T11:10:47;101328.16;;;22.92
69785;BMP280;14177;51.520;6.764;2022-10-16T11:13:43;101333.84;;;22.99
69785;BMP280;14177;51.520;6.764;2022-10-16T11:16:27;101328.53;;;22.99
69785;BMP280;14177;51.520;6.764;2022-10-16T11:22:05;101329.72;;;22.59
69785;BMP280;14177;51.520;6.764;2022-10-16T11:24:45;101332.34;;;22.48
69785;BMP280;14177;51.520;6.764;2022-10-16T11:27:24;101349.31;;;22.69
69785;BMP280;14177;51.520;6.764;2022-10-16T11:29:59;101346.34;;;22.97
69785;BMP280;14177;51.520;6.764;2022-10-16T11:32:36;101345.09;;;23.26
69785;BMP280;14177;51.520;6.764;2022-10-16T11:35:29;101340.41;;;23.63
69785;BMP280;14177;51.520;6.764;2022-10-16T11:38:02;101339.06;;;24.03
69785;BMP280;14177;51.520;6.764;2022-10-16T11:40:38;101328.69;;;24.33
69785;BMP280;14177;51.520;6.764;2022-10-16T11:43:18;101332.75;;;24.81
69785;BMP280;14177;51.520;6.764;2022-10-16T11:46:15;101329.97;;;25.25
69785;BMP280;14177;51.520;6.764;2022-10-16T11:49:03;101329.94;;;25.36
69785;BMP280;14177;51.520;6.764;2022-10-16T11:54:39;101331.75;;;25.56
69785;BMP280;14177;51.520;6.764;2022-10-16T11:57:34;101342.03;;;25.81
69785;BMP280;14177;51.520;6.764;2022-10-16T12:00:23;101343.31;;;26.06
69785;BMP280;14177;51.520;6.764;2022-10-16T12:03:08;101349.28;;;25.79
69785;BMP280;14177;51.520;6.764;2022-10-16T12:08:17;101356.91;;;25.83
69785;BMP280;14177;51.520;6.764;2022-10-16T12:10:47;101346.16;;;25.74
69785;BMP280;14177;51.520;6.764;2022-10-16T12:13:40;101351.31;;;25.34
69785;BMP280;14177;51.520;6.764;2022-10-16T12:18:41;101362.59;;;24.30
69785;BMP280;14177;51.520;6.764;2022-10-16T12:21:11;101354.22;;;23.79
69785;BMP280;14177;51.520;6.764;2022-10-16T12:23:58;101359.47;;;23.34
69785;BMP280;14177;51.520;6.764;2022-10-16T12:26:34;101361.28;;;22.98
69785;BMP280;14177;51.520;6.764;2022-10-16T12:29:36;101351.03;;;22.57
69785;BMP280;14177;51.520;6.764;2022-10-16T12:32:32;101350.00;;;22.22
69785;BMP280;14177;51.520;6.764;2022-10-16T12:35:28;101352.47;;;22.01
69785;BMP280;14177;51.520;6.764;2022-10-16T12:38:15;101359.09;;;22.06
69785;BMP280;14177;51.520;6.764;2022-10-16T12:40:46;101359.09;;;22.06
69785;BMP280;14177;51.520;6.764;2022-10-16T12:48:39;101356.59;;;22.42
69785;BMP280;14177;51.520;6.764;2022-10-16T12:51:52;101357.63;;;22.52
69785;BMP280;14177;51.520;6.764;2022-10-16T12:54:46;101361.19;;;22.63
69785;BMP280;14177;51.520;6.764;2022-10-16T12:57:52;101369.63;;;22.81
69785;BMP280;14177;51.520;6.764;2022-10-16T13:00:39;101368.28;;;22.99
69785;BMP280;14177;51.520;6.764;2022-10-16T13:03:43;101366.59;;;23.44
69785;BMP280;14177;51.520;6.764;2022-10-16T13:06:42;101358.00;;;23.64
69785;BMP280;14177;51.520;6.764;2022-10-16T13:09:33;101355.38;;;23.75
69785;BMP280;14177;51.520;6.764;2022-10-16T13:12:25;101368.00;;;24.06
69785;BMP280;14177;51.520;6.764;2022-10-16T13:15:11;101358.59;;;24.35
69785;BMP280;14177;51.520;6.764;2022-10-16T13:17:59;101353.56;;;24.65
69785;BMP280;14177;51.520;6.764;2022-10-16T13:26:24;101360.91;;;25.57
69785;BMP280;14177;51.520;6.764;2022-10-16T13:28:53;101363.06;;;25.32
69785;BMP280;14177;51.520;6.764;2022-10-16T13:31:24;101373.81;;;24.77
69785;BMP280;14177;51.520;6.764;2022-10-16T13:33:55;101377.66;;;24.07
69785;BMP280;14177;51.520;6.764;2022-10-16T13:36:42;101377.56;;;23.40
69785;BMP280;14177;51.520;6.764;2022-10-16T13:39:26;101384.41;;;22.96
69785;BMP280;14177;51.520;6.764;2022-10-16T13:42:17;101372.34;;;22.43
69785;BMP280;14177;51.520;6.764;2022-10-16T13:44:52;101384.94;;;22.15
69785;BMP280;14177;51.520;6.764;2022-10-16T13:47:29;101369.59;;;21.83
69785;BMP280;14177;51.520;6.764;2022-10-16T13:50:13;101373.38;;;21.66
69785;BMP280;14177;51.520;6.764;2022-10-16T13:52:40;101382.91;;;21.55
69785;BMP280;14177;51.520;6.764;2022-10-16T13:55:18;101385.25;;;21.47
69785;BMP280;14177;51.520;6.764;2022-10-16T13:57:45;101378.75;;;21.65
69785;BMP280;14177;51.520;6.764;2022-10-16T14:00:22;101377.31;;;21.98
69785;BMP280;14177;51.520;6.764;2022-10-16T14:03:00;101390.00;;;22.30
69785;BMP280;14177;51.520;6.764;2022-10-16T14:05:28;101377.41;;;22.59
69785;BMP280;14177;51.520;6.764;2022-10-16T14:07:57;101384.31;;;22.49
69785;BMP280;14177;51.520;6.764;2022-10-16T14:10:31;101385.78;;;22.28
69785;BMP280;14177;51.520;6.764;2022-10-16T14:13:04;101390.66;;;22.09
69785;BMP280;14177;51.520;6.764;2022-10-16T14:15:35;101403.13;;;21.82
69785;BMP280;14177;51.520;6.764;2022-10-16T14:18:03;101402.66;;;21.63
69785;BMP280;14177;51.520;6.764;2022-10-16T14:20:33;101399.50;;;21.44
69785;BMP280;14177;51.520;6.764;2022-10-16T14:23:04;101400.63;;;21.28
69785;BMP280;14177;51.520;6.764;2022-10-16T14:25:46;101397.16;;;21.13
69785;BMP280;14177;51.520;6.764;2022-10-16T14:28:21;101390.13;;;21.00
69785;BMP280;14177;51.520;6.764;2022-10-16T14:31:00;101380.06;;;20.92
69785;BMP280;14177;51.520;6.764;2022-10-16T14:36:04;101372.59;;;20.99
69785;BMP280;14177;51.520;6.764;2022-10-16T14:38:32;101381.38;;;20.99
69785;BMP280;14177;51.520;6.764;2022-10-16T14:41:00;101376.19;;;20.98
69785;BMP280;14177;51.520;6.764;2022-10-16T14:43:39;101390.13;;;21.00
69785;BMP280;14177;51.520;6.764;2022-10-16T14:46:16;101387.41;;;21.01
69785;BMP280;14177;51.520;6.764;2022-10-16T14:55:16;101397.69;;;20.78
69785;BMP280;14177;51.520;6.764;2022-10-16T14:57:45;101392.91;;;20.71
69785;BMP280;14177;51.520;6.764;2022-10-16T15:00:22;101385.91;;;20.70
69785;BMP280;14177;51.520;6.764;2022-10-16T15:02:52;101378.75;;;20.72
69785;BMP280;14177;51.520;6.764;2022-10-16T15:05:27;101381.19;;;20.75
69785;BMP280;14177;51.520;6.764;2022-10-16T15:07:55;101394.78;;;20.69
69785;BMP280;14177;51.520;6.764;2022-10-16T15:10:25;101388.56;;;20.56
69785;BMP280;14177;51.520;6.764;2022-10-16T15:12:53;101385.09;;;20.41
69785;BMP280;14177;51.520;6.764;2022-10-16T15:18:09;101382.56;;;20.26
69785;BMP280;14177;51.520;6.764;2022-10-16T15:20:38;101385.59;;;20.20
69785;BMP280;14177;51.520;6.764;2022-10-16T15:23:19;101387.47;;;20.18
69785;BMP280;14177;51.520;6.764;2022-10-16T15:25:55;101375.09;;;20.18
69785;BMP280;14177;51.520;6.764;2022-10-16T15:28:24;101372.75;;;20.14
69785;BMP280;14177;51.520;6.764;2022-10-16T15:30:55;101378.88;;;20.14
69785;BMP280;14177;51.520;6.764;2022-10-16T15:33:26;101395.75;;;20.12
69785;BMP280;14177;51.520;6.764;2022-10-16T15:35:55;101373.13;;;20.08
69785;BMP280;14177;51.520;6.764;2022-10-16T15:38:27;101376.41;;;20.11
69785;BMP280;14177;51.520;6.764;2022-10-16T15:40:54;101374.47;;;20.15
69785;BMP280;14177;51.520;6.764;2022-10-16T15:43:22;101369.75;;;20.20
69785;BMP280;14177;51.520;6.764;2022-10-16T15:46:18;101362.78;;;20.19
69785;BMP280;14177;51.520;6.764;2022-10-16T15:48:47;101376.72;;;20.21
69785;BMP280;14177;51.520;6.764;2022-10-16T15:51:15;101365.50;;;20.17
69785;BMP280;14177;51.520;6.764;2022-10-16T15:53:43;101350.91;;;20.12
69785;BMP280;14177;51.520;6.764;2022-10-16T15:56:10;101359.00;;;20.09
69785;BMP280;14177;51.520;6.764;2022-10-16T15:58:39;101362.59;;;20.08
69785;BMP280;14177;51.520;6.764;2022-10-16T16:01:06;101361.06;;;20.04
69785;BMP280;14177;51.520;6.764;2022-10-16T16:03:34;101363.06;;;20.00
69785;BMP280;14177;51.520;6.764;2022-10-16T16:06:09;101381.59;;;19.99
69785;BMP280;14177;51.520;6.764;2022-10-16T16:08:38;101366.22;;;19.91
69785;BMP280;14177;51.520;6.764;2022-10-16T16:11:12;101370.91;;;19.86
69785;BMP280;14177;51.520;6.764;2022-10-16T16:13:40;101377.38;;;19.81
69785;BMP280;14177;51.520;6.764;2022-10-16T16:16:13;101372.47;;;19.75
69785;BMP280;14177;51.520;6.764;2022-10-16T16:18:42;101370.19;;;19.69
69785;BMP280;14177;51.520;6.764;2022-10-16T16:21:13;101387.16;;;19.65
69785;BMP280;14177;51.520;6.764;2022-10-16T16:23:40;101388.28;;;19.61
69785;BMP280;14177;51.520;6.764;2022-10-16T16:26:13;101394.50;;;19.60
69785;BMP280;14177;51.520;6.764;2022-10-16T16:28:42;101384.31;;;19.54
69785;BMP280;14177;51.520;6.764;2022-10-16T16:31:10;101384.47;;;19.51
69785;BMP280;14177;51.520;6.764;2022-10-16T16:33:37;101379.56;;;19.45
69785;BMP280;14177;51.520;6.764;2022-10-16T16:36:05;101387.81;;;19.39
69785;BMP280;14177;51.520;6.764;2022-10-16T16:38:38;101398.03;;;19.30
69785;BMP280;14177;51.520;6.764;2022-10-16T16:41:20;101392.25;;;19.23
69785;BMP280;14177;51.520;6.764;2022-10-16T16:44:05;101388.28;;;19.16
69785;BMP280;14177;51.520;6.764;2022-10-16T16:46:40;101397.59;;;19.06
69785;BMP280;14177;51.520;6.764;2022-10-16T16:49:21;101392.06;;;18.95
69785;BMP280;14177;51.520;6.764;2022-10-16T16:51:54;101395.25;;;18.86
69785;BMP280;14177;51.520;6.764;2022-10-16T16:54:31;101393.28;;;18.74
69785;BMP280;14177;51.520;6.764;2022-10-16T16:57:04;101395.47;;;18.66
69785;BMP280;14177;51.520;6.764;2022-10-16T16:59:34;101401.06;;;18.60
69785;BMP280;14177;51.520;6.764;2022-10-16T17:02:02;101398.75;;;18.54
69785;BMP280;14177;51.520;6.764;2022-10-16T17:04:30;101426.94;;;18.52
69785;BMP280;14177;51.520;6.764;2022-10-16T17:06:58;101436.09;;;18.45
69785;BMP280;14177;51.520;6.764;2022-10-16T17:09:33;101431.13;;;18.39
69785;BMP280;14177;51.520;6.764;2022-10-16T17:12:02;101429.75;;;18.33
69785;BMP280;14177;51.520;6.764;2022-10-16T17:14:31;101434.41;;;18.28
69785;BMP280;14177;51.520;6.764;2022-10-16T17:17:04;101428.69;;;18.20
69785;BMP280;14177;51.520;6.764;2022-10-16T17:19:34;101417.72;;;18.12
69785;BMP280;14177;51.520;6.764;2022-10-16T17:22:01;101414.47;;;18.07
69785;BMP280;14177;51.520;6.764;2022-10-16T17:24:33;101424.38;;;18.02
69785;BMP280;14177;51.520;6.764;2022-10-16T17:27:02;101427.16;;;17.99